createdAt,value
2019-02-23T00:00:15.464Z,0.00
2019-02-23T00:01:15.404Z,0.00
2019-02-23T00:02:15.332Z,0.00
2019-02-23T00:03:15.249Z,0.00
2019-02-23T00:04:15.180Z,0.00
2019-02-23T00:05:15.108Z,0.00
2019-02-23T00:06:15.037Z,0.00
2019-02-23T00:07:14.982Z,0.00
2019-02-23T00:08:14.905Z,0.00
2019-02-23T00:09:14.825Z,0.00
2019-02-23T00:10:14.757Z,0.00
2019-02-23T00:11:14.689Z,0.00
2019-02-23T00:12:14.620Z,0.00
2019-02-23T00:13:14.551Z,0.00
2019-02-23T00:14:14.485Z,0.00
2019-02-23T00:15:14.398Z,0.00
2019-02-23T00:16:14.329Z,0.00
2019-02-23T00:17:14.284Z,0.00
2019-02-23T00:18:14.179Z,0.00
2019-02-23T00:19:24.557Z,0.00
2019-02-23T00:20:14.054Z,0.00
2019-02-23T00:21:13.982Z,0.00
2019-02-23T00:22:13.926Z,0.00
2019-02-23T00:23:13.828Z,0.00
2019-02-23T00:24:13.755Z,0.00
2019-02-23T00:25:13.689Z,0.00
2019-02-23T00:26:13.622Z,0.00
2019-02-23T00:27:13.539Z,0.00
2019-02-23T00:28:13.491Z,0.00
2019-02-23T00:29:13.398Z,0.00
2019-02-23T00:30:13.333Z,0.00
2019-02-23T00:31:13.271Z,0.00
2019-02-23T00:32:13.198Z,0.00
2019-02-23T00:33:13.116Z,0.00
2019-02-23T00:34:13.039Z,0.00
2019-02-23T00:35:13.001Z,0.00
2019-02-23T00:36:12.903Z,0.00
2019-02-23T00:37:12.836Z,0.00
2019-02-23T00:38:12.768Z,0.00
2019-02-23T00:39:12.683Z,0.00
2019-02-23T00:40:12.609Z,0.00
2019-02-23T00:41:12.566Z,0.00
2019-02-23T00:42:12.504Z,0.00
2019-02-23T00:43:12.401Z,0.00
2019-02-23T00:44:12.326Z,0.00
2019-02-23T00:45:12.257Z,0.00
2019-02-23T00:46:12.178Z,0.00
2019-02-23T00:47:12.130Z,0.00
2019-02-23T00:48:12.049Z,0.00
2019-02-23T00:49:11.990Z,0.00
2019-02-23T00:50:11.905Z,0.00
2019-02-23T00:51:11.827Z,0.00
2019-02-23T00:52:11.757Z,0.00
2019-02-23T00:53:11.682Z,0.00
2019-02-23T00:54:11.621Z,0.00
2019-02-23T00:55:11.552Z,0.00
2019-02-23T00:56:11.480Z,0.00
2019-02-23T00:57:11.396Z,0.00
2019-02-23T00:58:11.325Z,0.00
2019-02-23T00:59:11.261Z,0.00
2019-02-23T01:00:11.210Z,0.00
2019-02-23T01:01:11.119Z,0.00
2019-02-23T01:02:12.139Z,0.00
2019-02-23T01:03:10.965Z,0.00
2019-02-23T01:04:10.897Z,0.00
2019-02-23T01:05:10.840Z,0.00
2019-02-23T01:06:10.766Z,0.00
2019-02-23T01:07:10.679Z,0.00
2019-02-23T01:08:10.608Z,0.00
2019-02-23T01:09:10.537Z,0.00
2019-02-23T01:10:10.466Z,0.00
2019-02-23T01:11:10.404Z,0.00
2019-02-23T01:12:10.341Z,0.00
2019-02-23T01:13:10.252Z,0.00
2019-02-23T01:14:10.181Z,0.00
2019-02-23T01:15:10.119Z,0.00
2019-02-23T01:16:10.078Z,0.00
2019-02-23T01:17:09.976Z,0.00
2019-02-23T01:18:09.905Z,0.00
2019-02-23T01:19:09.822Z,0.00
2019-02-23T01:20:09.750Z,0.00
2019-02-23T01:21:09.678Z,0.00
2019-02-23T01:22:09.635Z,0.00
2019-02-23T01:23:09.543Z,0.00
2019-02-23T01:24:09.477Z,0.00
2019-02-23T01:25:09.400Z,0.00
2019-02-23T01:26:09.333Z,0.00
2019-02-23T01:27:09.245Z,0.00
2019-02-23T01:28:09.175Z,0.00
2019-02-23T01:29:09.120Z,0.00
2019-02-23T01:30:09.039Z,0.00
2019-02-23T01:31:08.961Z,0.00
2019-02-23T01:32:08.897Z,0.00
2019-02-23T01:33:08.817Z,0.00
2019-02-23T01:34:08.751Z,0.00
2019-02-23T01:35:08.688Z,0.00
2019-02-23T01:36:08.612Z,0.00
2019-02-23T01:37:08.539Z,0.00
2019-02-23T01:38:08.477Z,0.00
2019-02-23T01:39:08.390Z,0.00
2019-02-23T01:40:08.315Z,0.00
2019-02-23T01:41:08.246Z,0.00
2019-02-23T01:42:08.172Z,0.00
2019-02-23T01:43:08.114Z,0.00
2019-02-23T01:44:08.044Z,0.00
2019-02-23T01:45:07.958Z,0.00
2019-02-23T01:46:07.885Z,0.00
2019-02-23T01:47:07.825Z,0.00
2019-02-23T01:48:07.761Z,0.00
2019-02-23T01:49:07.681Z,0.00
2019-02-23T01:50:07.610Z,0.00
2019-02-23T01:51:07.533Z,0.00
2019-02-23T01:52:07.461Z,0.00
2019-02-23T01:53:07.383Z,0.00
2019-02-23T01:54:07.322Z,0.00
2019-02-23T01:55:07.253Z,0.00
2019-02-23T01:56:07.178Z,0.00
2019-02-23T01:57:07.108Z,0.00
2019-02-23T01:58:07.049Z,0.00
2019-02-23T01:59:06.951Z,0.00
2019-02-23T02:00:06.881Z,0.00
2019-02-23T02:01:06.819Z,0.00
2019-02-23T02:02:06.748Z,0.00
2019-02-23T02:03:06.666Z,0.00
2019-02-23T02:04:06.591Z,0.00
2019-02-23T02:05:06.519Z,0.00
2019-02-23T02:06:06.447Z,0.00
2019-02-23T02:07:06.387Z,0.00
2019-02-23T02:08:06.312Z,0.00
2019-02-23T02:09:06.234Z,0.00
2019-02-23T02:10:06.159Z,0.00
2019-02-23T02:11:06.100Z,0.00
2019-02-23T02:12:06.029Z,0.00
2019-02-23T02:13:05.961Z,0.00
2019-02-23T02:14:05.881Z,0.00
2019-02-23T02:15:05.799Z,0.00
2019-02-23T02:16:05.726Z,0.00
2019-02-23T02:17:05.667Z,0.00
2019-02-23T02:18:05.597Z,0.00
2019-02-23T02:19:05.512Z,0.00
2019-02-23T02:20:11.015Z,0.00
2019-02-23T02:21:05.376Z,0.00
2019-02-23T02:22:05.296Z,0.00
2019-02-23T02:23:05.238Z,0.00
2019-02-23T02:24:05.215Z,0.00
2019-02-23T02:25:05.098Z,0.00
2019-02-23T02:26:05.019Z,0.00
2019-02-23T02:27:04.936Z,0.00
2019-02-23T02:28:04.864Z,0.00
2019-02-23T02:29:04.789Z,0.00
2019-02-23T02:30:04.721Z,0.00
2019-02-23T02:31:04.657Z,0.00
2019-02-23T02:32:04.590Z,0.00
2019-02-23T02:33:04.498Z,0.00
2019-02-23T02:34:04.488Z,0.00
2019-02-23T02:35:04.370Z,0.00
2019-02-23T02:36:04.303Z,0.00
2019-02-23T02:37:04.230Z,0.00
2019-02-23T02:38:04.189Z,0.00
2019-02-23T02:39:04.073Z,0.00
2019-02-23T02:40:03.997Z,0.00
2019-02-23T02:41:03.940Z,0.00
2019-02-23T02:42:03.878Z,0.00
2019-02-23T02:43:03.788Z,0.00
2019-02-23T02:44:03.724Z,0.00
2019-02-23T02:45:03.632Z,0.00
2019-02-23T02:46:03.570Z,0.00
2019-02-23T02:47:03.502Z,0.00
2019-02-23T02:48:03.435Z,0.00
2019-02-23T02:49:03.345Z,0.00
2019-02-23T02:50:03.304Z,0.00
2019-02-23T02:51:03.215Z,0.00
2019-02-23T02:52:03.150Z,0.00
2019-02-23T02:53:03.069Z,0.00
2019-02-23T02:54:02.997Z,0.00
2019-02-23T02:55:02.915Z,0.00
2019-02-23T02:56:02.841Z,0.00
2019-02-23T02:57:02.788Z,0.00
2019-02-23T02:58:02.700Z,0.00
2019-02-23T02:59:02.649Z,0.00
2019-02-23T03:00:02.571Z,0.00
2019-02-23T03:01:02.492Z,0.00
2019-02-23T03:02:02.417Z,0.00
2019-02-23T03:03:02.341Z,0.00
2019-02-23T03:04:02.264Z,0.00
2019-02-23T03:05:02.206Z,0.00
2019-02-23T03:06:02.141Z,0.00
2019-02-23T03:07:02.051Z,0.00
2019-02-23T03:08:01.997Z,0.00
2019-02-23T03:09:01.902Z,0.00
2019-02-23T03:10:01.830Z,0.00
2019-02-23T03:11:01.783Z,0.00
2019-02-23T03:12:01.698Z,0.00
2019-02-23T03:13:01.612Z,0.00
2019-02-23T03:14:01.539Z,0.00
2019-02-23T03:15:01.482Z,0.00
2019-02-23T03:16:01.407Z,0.00
2019-02-23T03:17:01.339Z,0.00
2019-02-23T03:18:01.262Z,0.00
2019-02-23T03:19:01.178Z,0.00
2019-02-23T03:20:01.106Z,0.00
2019-02-23T03:21:01.047Z,0.00
2019-02-23T03:22:00.971Z,0.00
2019-02-23T03:23:00.890Z,0.00
2019-02-23T03:24:00.823Z,0.00
2019-02-23T03:25:00.744Z,0.00
2019-02-23T03:26:00.673Z,0.00
2019-02-23T03:27:00.613Z,0.00
2019-02-23T03:28:00.540Z,0.00
2019-02-23T03:29:00.472Z,0.00
2019-02-23T03:30:00.423Z,0.00
2019-02-23T03:31:00.328Z,0.00
2019-02-23T03:32:00.242Z,0.00
2019-02-23T03:33:00.165Z,0.00
2019-02-23T03:34:00.091Z,0.00
2019-02-23T03:35:00.025Z,0.00
2019-02-23T03:35:59.955Z,0.00
2019-02-23T03:36:59.879Z,0.00
2019-02-23T03:37:59.800Z,0.00
2019-02-23T03:38:59.738Z,0.00
2019-02-23T03:39:59.664Z,0.00
2019-02-23T03:40:59.590Z,0.00
2019-02-23T03:41:59.532Z,0.00
2019-02-23T03:42:59.436Z,0.00
2019-02-23T03:43:59.360Z,0.00
2019-02-23T03:44:59.302Z,0.00
2019-02-23T03:45:59.218Z,0.00
2019-02-23T03:46:59.162Z,0.00
2019-02-23T03:47:59.082Z,0.00
2019-02-23T03:48:59.013Z,0.00
2019-02-23T03:49:58.939Z,0.00
2019-02-23T03:50:58.849Z,0.00
2019-02-23T03:51:58.821Z,0.00
2019-02-23T03:52:58.719Z,0.00
2019-02-23T03:53:58.648Z,0.00
2019-02-23T03:54:58.579Z,0.00
2019-02-23T03:55:58.490Z,0.00
2019-02-23T03:56:58.418Z,0.00
2019-02-23T03:57:58.344Z,0.00
2019-02-23T03:58:58.283Z,0.00
2019-02-23T03:59:58.211Z,0.00
2019-02-23T04:00:58.135Z,0.00
2019-02-23T04:01:58.061Z,0.00
2019-02-23T04:02:57.980Z,0.00
2019-02-23T04:03:57.908Z,0.00
2019-02-23T04:04:57.836Z,0.00
2019-02-23T04:05:57.762Z,0.00
2019-02-23T04:06:57.703Z,0.00
2019-02-23T04:07:57.628Z,0.00
2019-02-23T04:08:57.544Z,0.00
2019-02-23T04:09:57.481Z,0.00
2019-02-23T04:10:57.405Z,0.00
2019-02-23T04:11:57.333Z,0.00
2019-02-23T04:12:57.261Z,0.00
2019-02-23T04:13:57.190Z,0.00
2019-02-23T04:14:57.112Z,0.00
2019-02-23T04:15:57.032Z,0.00
2019-02-23T04:16:56.984Z,0.00
2019-02-23T04:17:56.899Z,0.00
2019-02-23T04:18:56.815Z,0.00
2019-02-23T04:19:56.759Z,0.00
2019-02-23T04:21:01.658Z,0.00
2019-02-23T04:21:56.594Z,0.00
2019-02-23T04:22:56.535Z,0.00
2019-02-23T04:23:56.459Z,0.00
2019-02-23T04:24:56.372Z,0.00
2019-02-23T04:25:56.302Z,0.00
2019-02-23T04:26:56.240Z,0.00
2019-02-23T04:27:56.168Z,0.00
2019-02-23T04:28:56.097Z,0.00
2019-02-23T04:29:56.021Z,0.00
2019-02-23T04:30:55.937Z,0.00
2019-02-23T04:31:55.863Z,0.00
2019-02-23T04:32:55.824Z,0.00
2019-02-23T04:33:55.733Z,0.00
2019-02-23T04:34:55.662Z,0.00
2019-02-23T04:35:55.586Z,0.00
2019-02-23T04:36:55.507Z,0.00
2019-02-23T04:37:55.436Z,0.00
2019-02-23T04:38:55.354Z,0.00
2019-02-23T04:39:55.278Z,0.00
2019-02-23T04:40:55.216Z,0.00
2019-02-23T04:41:55.162Z,0.00
2019-02-23T04:42:55.059Z,0.00
2019-02-23T04:43:54.982Z,0.00
2019-02-23T04:44:54.914Z,0.00
2019-02-23T04:45:54.840Z,0.00
2019-02-23T04:46:54.778Z,0.00
2019-02-23T04:47:54.704Z,0.00
2019-02-23T04:48:54.628Z,0.00
2019-02-23T04:49:54.553Z,0.00
2019-02-23T04:50:54.484Z,0.00
2019-02-23T04:51:54.411Z,0.00
2019-02-23T04:52:54.342Z,0.00
2019-02-23T04:53:54.261Z,0.00
2019-02-23T04:54:54.184Z,0.00
2019-02-23T04:55:54.110Z,0.00
2019-02-23T04:56:54.073Z,0.00
2019-02-23T04:57:53.974Z,0.00
2019-02-23T04:58:53.888Z,0.00
2019-02-23T04:59:53.812Z,0.00
2019-02-23T05:00:53.736Z,0.00
2019-02-23T05:01:53.668Z,0.00
2019-02-23T05:02:53.607Z,0.00
2019-02-23T05:03:53.535Z,0.00
2019-02-23T05:04:53.461Z,0.00
2019-02-23T05:05:53.386Z,0.00
2019-02-23T05:06:53.302Z,0.00
2019-02-23T05:07:53.224Z,0.00
2019-02-23T05:08:53.153Z,0.00
2019-02-23T05:09:53.081Z,0.00
2019-02-23T05:10:53.018Z,0.00
2019-02-23T05:11:52.949Z,0.00
2019-02-23T05:12:52.862Z,0.00
2019-02-23T05:13:52.793Z,0.00
2019-02-23T05:14:52.723Z,0.00
2019-02-23T05:15:52.664Z,0.00
2019-02-23T05:16:52.585Z,0.00
2019-02-23T05:17:52.521Z,0.00
2019-02-23T05:18:52.426Z,0.00
2019-02-23T05:19:52.350Z,0.00
2019-02-23T05:20:52.293Z,0.00
2019-02-23T05:21:52.223Z,0.00
2019-02-23T05:22:52.127Z,0.00
2019-02-23T05:23:52.056Z,0.00
2019-02-23T05:24:53.454Z,0.00
2019-02-23T05:25:51.911Z,0.00
2019-02-23T05:26:51.850Z,0.00
2019-02-23T05:27:51.778Z,0.00
2019-02-23T05:28:51.692Z,0.00
2019-02-23T05:29:51.676Z,0.00
2019-02-23T05:30:51.557Z,0.00
2019-02-23T05:31:51.484Z,0.00
2019-02-23T05:32:51.408Z,0.00
2019-02-23T05:33:51.335Z,0.00
2019-02-23T05:34:51.255Z,0.00
2019-02-23T05:35:51.181Z,0.00
2019-02-23T05:36:51.107Z,0.00
2019-02-23T05:37:51.030Z,0.00
2019-02-23T05:38:50.971Z,0.00
2019-02-23T05:39:50.902Z,0.00
2019-02-23T05:40:50.879Z,0.00
2019-02-23T05:41:50.753Z,0.00
2019-02-23T05:43:00.390Z,0.00
2019-02-23T05:43:50.611Z,0.00
2019-02-23T05:44:50.528Z,0.00
2019-02-23T05:45:50.456Z,0.00
2019-02-23T05:46:50.369Z,0.00
2019-02-23T05:47:50.295Z,0.00
2019-02-23T05:48:50.219Z,0.00
2019-02-23T05:49:50.150Z,0.00
2019-02-23T05:50:50.222Z,0.00
2019-02-23T05:51:50.014Z,0.00
2019-02-23T05:52:49.939Z,0.00
2019-02-23T05:53:49.869Z,0.00
2019-02-23T05:54:49.777Z,0.00
2019-02-23T05:55:49.708Z,0.00
2019-02-23T05:56:49.631Z,0.00
2019-02-23T05:57:49.558Z,0.00
2019-02-23T05:58:49.501Z,0.00
2019-02-23T05:59:49.424Z,0.00
2019-02-23T06:00:49.350Z,0.00
2019-02-23T06:01:49.260Z,0.00
2019-02-23T06:02:49.200Z,0.00
2019-02-23T06:03:49.125Z,0.00
2019-02-23T06:04:49.099Z,0.00
2019-02-23T06:05:48.982Z,0.00
2019-02-23T06:06:48.896Z,0.00
2019-02-23T06:07:48.822Z,0.00
2019-02-23T06:08:48.750Z,0.00
2019-02-23T06:09:48.674Z,0.00
2019-02-23T06:10:48.612Z,0.00
2019-02-23T06:11:48.539Z,0.00
2019-02-23T06:12:48.475Z,0.00
2019-02-23T06:13:48.393Z,0.00
2019-02-23T06:14:48.309Z,0.00
2019-02-23T06:15:48.233Z,0.00
2019-02-23T06:16:48.173Z,0.00
2019-02-23T06:17:48.123Z,0.00
2019-02-23T06:18:48.027Z,0.00
2019-02-23T06:19:47.939Z,4.00
2019-02-23T06:20:47.862Z,4.00
2019-02-23T06:21:53.477Z,4.00
2019-02-23T06:22:47.732Z,4.00
2019-02-23T06:23:47.658Z,0.00
2019-02-23T06:24:47.571Z,4.00
2019-02-23T06:25:47.493Z,4.00
2019-02-23T06:26:47.441Z,4.00
2019-02-23T06:27:47.361Z,4.00
2019-02-23T06:28:47.283Z,4.00
2019-02-23T06:29:47.211Z,4.00
2019-02-23T06:30:47.125Z,8.00
2019-02-23T06:31:47.054Z,8.00
2019-02-23T06:32:46.986Z,12.00
2019-02-23T06:33:46.914Z,8.00
2019-02-23T06:34:46.835Z,12.00
2019-02-23T06:35:46.826Z,12.00
2019-02-23T06:36:46.684Z,20.00
2019-02-23T06:37:46.608Z,20.00
2019-02-23T06:38:46.551Z,24.00
2019-02-23T06:39:46.472Z,28.00
2019-02-23T06:40:46.401Z,32.00
2019-02-23T06:41:46.328Z,40.00
2019-02-23T06:42:46.245Z,44.00
2019-02-23T06:43:46.168Z,48.00
2019-02-23T06:44:46.100Z,56.00
2019-02-23T06:45:46.022Z,64.00
2019-02-23T06:46:45.964Z,68.00
2019-02-23T06:47:45.921Z,76.00
2019-02-23T06:48:45.816Z,88.00
2019-02-23T06:49:45.726Z,96.00
2019-02-23T06:50:45.667Z,108.00
2019-02-23T06:51:45.590Z,116.00
2019-02-23T06:52:45.520Z,128.00
2019-02-23T06:53:45.447Z,136.00
2019-02-23T06:54:45.355Z,152.00
2019-02-23T06:55:45.282Z,164.00
2019-02-23T06:56:45.210Z,180.00
2019-02-23T06:57:45.140Z,192.00
2019-02-23T06:58:45.103Z,208.00
2019-02-23T06:59:45.002Z,224.00
2019-02-23T07:00:44.926Z,240.00
2019-02-23T07:01:44.850Z,256.00
2019-02-23T07:02:44.770Z,276.00
2019-02-23T07:03:44.690Z,296.00
2019-02-23T07:04:44.637Z,316.00
2019-02-23T07:05:44.562Z,340.00
2019-02-23T07:06:44.515Z,364.00
2019-02-23T07:07:44.401Z,392.00
2019-02-23T07:08:44.329Z,420.00
2019-02-23T07:09:44.268Z,452.00
2019-02-23T07:10:44.191Z,480.00
2019-02-23T07:11:44.197Z,516.00
2019-02-23T07:12:44.047Z,556.00
2019-02-23T07:13:43.983Z,592.00
2019-02-23T07:14:43.886Z,636.00
2019-02-23T07:15:43.810Z,684.00
2019-02-23T07:16:43.755Z,732.00
2019-02-23T07:17:43.664Z,780.00
2019-02-23T07:18:43.603Z,840.00
2019-02-23T07:19:43.528Z,896.00
2019-02-23T07:20:44.670Z,968.00
2019-02-23T07:21:43.372Z,1036.00
2019-02-23T07:22:43.319Z,1096.00
2019-02-23T07:23:43.235Z,1164.00
2019-02-23T07:24:43.163Z,1232.00
2019-02-23T07:25:43.089Z,1296.00
2019-02-23T07:26:43.004Z,1356.00
2019-02-23T07:27:42.932Z,1412.00
2019-02-23T07:28:42.869Z,1472.00
2019-02-23T07:29:42.799Z,1524.00
2019-02-23T07:30:42.708Z,1580.00
2019-02-23T07:31:42.648Z,1636.00
2019-02-23T07:32:42.562Z,1688.00
2019-02-23T07:33:42.494Z,1744.00
2019-02-23T07:34:42.432Z,1796.00
2019-02-23T07:35:42.349Z,1860.00
2019-02-23T07:36:42.268Z,1908.00
2019-02-23T07:37:42.274Z,1968.00
2019-02-23T07:38:42.136Z,2016.00
2019-02-23T07:39:42.059Z,2064.00
2019-02-23T07:40:41.987Z,2104.00
2019-02-23T07:41:41.915Z,2156.00
2019-02-23T07:42:41.834Z,2204.00
2019-02-23T07:43:41.756Z,2248.00
2019-02-23T07:44:41.685Z,2288.00
2019-02-23T07:45:41.608Z,2332.00
2019-02-23T07:46:41.559Z,2380.00
2019-02-23T07:47:41.535Z,2420.00
2019-02-23T07:48:41.404Z,2464.00
2019-02-23T07:49:41.331Z,2504.00
2019-02-23T07:50:41.266Z,2548.00
2019-02-23T07:51:41.176Z,2588.00
2019-02-23T07:52:41.116Z,2632.00
2019-02-23T07:53:41.035Z,2672.00
2019-02-23T07:54:40.958Z,2704.00
2019-02-23T07:55:40.882Z,2740.00
2019-02-23T07:56:40.815Z,2788.00
2019-02-23T07:57:40.741Z,2816.00
2019-02-23T07:58:40.679Z,2860.00
2019-02-23T07:59:40.607Z,2900.00
2019-02-23T08:00:40.562Z,2940.00
2019-02-23T08:01:40.460Z,2964.00
2019-02-23T08:02:40.378Z,3008.00
2019-02-23T08:03:40.305Z,3032.00
2019-02-23T08:04:40.232Z,3072.00
2019-02-23T08:05:40.164Z,3100.00
2019-02-23T08:06:40.100Z,3136.00
2019-02-23T08:07:40.207Z,3176.00
2019-02-23T08:08:39.944Z,3188.00
2019-02-23T08:09:39.888Z,3220.00
2019-02-23T08:10:39.813Z,3256.00
2019-02-23T08:11:39.734Z,3288.00
2019-02-23T08:12:39.673Z,3312.00
2019-02-23T08:13:40.696Z,3340.00
2019-02-23T08:14:39.509Z,3380.00
2019-02-23T08:15:39.441Z,3408.00
2019-02-23T08:16:39.365Z,3440.00
2019-02-23T08:17:39.300Z,3464.00
2019-02-23T08:18:39.249Z,3480.00
2019-02-23T08:19:39.175Z,3516.00
2019-02-23T08:20:39.092Z,3540.00
2019-02-23T08:21:39.023Z,3556.00
2019-02-23T08:22:38.941Z,3592.00
2019-02-23T08:23:38.901Z,3620.00
2019-02-23T08:24:38.809Z,3640.00
2019-02-23T08:25:38.738Z,3668.00
2019-02-23T08:26:38.658Z,3684.00
2019-02-23T08:27:38.582Z,3712.00
2019-02-23T08:28:38.513Z,3752.00
2019-02-23T08:29:38.443Z,3760.00
2019-02-23T08:30:38.388Z,3784.00
2019-02-23T08:31:38.310Z,3800.00
2019-02-23T08:32:38.224Z,3816.00
2019-02-23T08:33:38.159Z,3840.00
2019-02-23T08:34:38.116Z,3852.00
2019-02-23T08:35:38.025Z,3872.00
2019-02-23T08:36:37.962Z,3888.00
2019-02-23T08:37:37.882Z,3920.00
2019-02-23T08:38:37.808Z,3916.00
2019-02-23T08:39:37.728Z,3944.00
2019-02-23T08:40:37.671Z,3956.00
2019-02-23T08:41:37.603Z,3980.00
2019-02-23T08:42:37.527Z,4008.00
2019-02-23T08:43:37.488Z,4016.00
2019-02-23T08:44:37.381Z,4032.00
2019-02-23T08:45:37.308Z,4064.00
2019-02-23T08:46:37.253Z,4088.00
2019-02-23T08:47:37.184Z,4092.00
2019-02-23T08:48:37.114Z,4108.00
2019-02-23T08:49:37.045Z,4124.00
2019-02-23T08:50:36.972Z,4140.00
2019-02-23T08:51:36.899Z,4160.00
2019-02-23T08:52:36.818Z,4188.00
2019-02-23T08:53:36.751Z,4184.00
2019-02-23T08:54:36.693Z,4216.00
2019-02-23T08:55:36.617Z,4224.00
2019-02-23T08:56:36.543Z,4232.00
2019-02-23T08:57:36.487Z,4252.00
2019-02-23T08:58:36.416Z,4272.00
2019-02-23T08:59:36.343Z,4280.00
2019-02-23T09:00:36.273Z,4292.00
2019-02-23T09:01:36.209Z,4312.00
2019-02-23T09:02:36.141Z,4320.00
2019-02-23T09:03:36.053Z,4348.00
2019-02-23T09:04:36.016Z,4368.00
2019-02-23T09:05:35.924Z,4380.00
2019-02-23T09:06:35.845Z,4380.00
2019-02-23T09:07:35.776Z,4388.00
2019-02-23T09:08:35.706Z,4392.00
2019-02-23T09:09:35.637Z,4396.00
2019-02-23T09:10:35.584Z,4416.00
2019-02-23T09:11:35.511Z,4412.00
2019-02-23T09:12:35.431Z,4432.00
2019-02-23T09:13:35.360Z,4436.00
2019-02-23T09:14:35.300Z,4448.00
2019-02-23T09:15:35.279Z,4432.00
2019-02-23T09:16:35.168Z,4428.00
2019-02-23T09:17:35.097Z,4440.00
2019-02-23T09:18:35.016Z,4456.00
2019-02-23T09:19:34.948Z,4456.00
2019-02-23T09:20:34.879Z,4480.00
2019-02-23T09:21:34.813Z,4472.00
2019-02-23T09:22:34.750Z,4488.00
2019-02-23T09:23:34.701Z,4484.00
2019-02-23T09:24:34.618Z,4504.00
2019-02-23T09:25:34.547Z,4500.00
2019-02-23T09:26:34.466Z,4484.00
2019-02-23T09:27:34.475Z,4512.00
2019-02-23T09:28:34.336Z,4504.00
2019-02-23T09:29:34.273Z,4492.00
2019-02-23T09:30:34.196Z,4532.00
2019-02-23T09:31:34.121Z,4504.00
2019-02-23T09:32:34.057Z,4536.00
2019-02-23T09:33:33.986Z,4524.00
2019-02-23T09:34:33.937Z,4544.00
2019-02-23T09:35:33.858Z,4544.00
2019-02-23T09:36:33.783Z,4540.00
2019-02-23T09:37:33.714Z,4528.00
2019-02-23T09:38:33.657Z,4536.00
2019-02-23T09:39:33.584Z,4532.00
2019-02-23T09:40:33.521Z,4548.00
2019-02-23T09:41:33.447Z,4540.00
2019-02-23T09:42:33.377Z,4548.00
2019-02-23T09:43:33.304Z,4528.00
2019-02-23T09:44:33.246Z,4548.00
2019-02-23T09:45:33.182Z,4540.00
2019-02-23T09:46:33.104Z,4552.00
2019-02-23T09:47:33.040Z,4544.00
2019-02-23T09:48:32.964Z,4556.00
2019-02-23T09:49:32.895Z,4548.00
2019-02-23T09:50:32.853Z,4544.00
2019-02-23T09:51:32.771Z,4540.00
2019-02-23T09:52:32.708Z,4556.00
2019-02-23T09:53:32.640Z,4552.00
2019-02-23T09:54:32.617Z,4560.00
2019-02-23T09:55:32.489Z,4548.00
2019-02-23T09:56:32.423Z,4560.00
2019-02-23T09:57:32.368Z,4564.00
2019-02-23T09:58:32.296Z,4556.00
2019-02-23T09:59:32.230Z,4564.00
2019-02-23T10:00:32.147Z,4560.00
2019-02-23T10:01:32.088Z,4560.00
2019-02-23T10:02:32.039Z,4544.00
2019-02-23T10:03:31.957Z,4544.00
2019-02-23T10:04:31.891Z,4540.00
2019-02-23T10:05:31.826Z,4536.00
2019-02-23T10:06:31.742Z,4536.00
2019-02-23T10:07:31.673Z,4528.00
2019-02-23T10:08:31.610Z,4516.00
2019-02-23T10:09:31.539Z,4512.00
2019-02-23T10:10:31.490Z,4500.00
2019-02-23T10:11:31.414Z,4468.00
2019-02-23T10:12:31.344Z,4460.00
2019-02-23T10:13:31.279Z,4452.00
2019-02-23T10:14:31.207Z,4460.00
2019-02-23T10:15:31.134Z,4440.00
2019-02-23T10:16:31.085Z,4432.00
2019-02-23T10:17:31.014Z,4420.00
2019-02-23T10:18:30.935Z,4408.00
2019-02-23T10:19:30.863Z,4392.00
2019-02-23T10:20:30.796Z,4384.00
2019-02-23T10:21:30.729Z,4368.00
2019-02-23T10:22:30.671Z,4376.00
2019-02-23T10:23:30.600Z,4372.00
2019-02-23T10:24:30.537Z,4364.00
2019-02-23T10:25:30.472Z,4328.00
2019-02-23T10:26:30.391Z,4324.00
2019-02-23T10:27:30.325Z,4300.00
2019-02-23T10:28:30.255Z,4280.00
2019-02-23T10:29:30.212Z,4264.00
2019-02-23T10:30:30.142Z,4252.00
2019-02-23T10:31:30.066Z,4232.00
2019-02-23T10:32:29.993Z,4220.00
2019-02-23T10:33:29.918Z,4192.00
2019-02-23T10:34:29.868Z,4180.00
2019-02-23T10:35:29.829Z,4164.00
2019-02-23T10:36:29.728Z,4160.00
2019-02-23T10:37:29.662Z,4128.00
2019-02-23T10:38:29.584Z,4120.00
2019-02-23T10:39:29.520Z,4092.00
2019-02-23T10:40:29.461Z,4092.00
2019-02-23T10:41:29.398Z,4092.00
2019-02-23T10:42:29.313Z,4052.00
2019-02-23T10:43:29.249Z,4032.00
2019-02-23T10:44:29.181Z,4032.00
2019-02-23T10:45:29.112Z,4008.00
2019-02-23T10:46:29.058Z,3988.00
2019-02-23T10:47:28.986Z,3952.00
2019-02-23T10:48:28.905Z,3928.00
2019-02-23T10:49:28.843Z,3912.00
2019-02-23T10:50:28.787Z,3888.00
2019-02-23T10:51:28.716Z,3864.00
2019-02-23T10:52:28.654Z,3840.00
2019-02-23T10:53:32.798Z,3824.00
2019-02-23T10:54:28.511Z,3804.00
2019-02-23T10:55:28.435Z,3776.00
2019-02-23T10:56:28.372Z,3760.00
2019-02-23T10:57:28.305Z,3736.00
2019-02-23T10:58:28.250Z,3712.00
2019-02-23T10:59:28.192Z,3688.00
2019-02-23T11:00:28.115Z,3668.00
2019-02-23T11:01:28.044Z,3672.00
2019-02-23T11:02:27.972Z,3656.00
2019-02-23T11:03:27.901Z,3632.00
2019-02-23T11:04:27.848Z,3588.00
2019-02-23T11:05:27.778Z,3580.00
2019-02-23T11:06:27.697Z,3572.00
2019-02-23T11:07:27.633Z,3552.00
2019-02-23T11:08:27.568Z,3544.00
2019-02-23T11:09:27.500Z,3524.00
2019-02-23T11:10:27.485Z,3496.00
2019-02-23T11:11:27.374Z,3476.00
2019-02-23T11:12:27.316Z,3464.00
2019-02-23T11:13:27.273Z,3428.00
2019-02-23T11:14:27.200Z,3408.00
2019-02-23T11:15:27.104Z,3400.00
2019-02-23T11:16:27.032Z,3368.00
2019-02-23T11:17:26.969Z,3376.00
2019-02-23T11:18:26.909Z,3340.00
2019-02-23T11:19:26.826Z,3324.00
2019-02-23T11:20:26.761Z,3300.00
2019-02-23T11:21:26.741Z,3288.00
2019-02-23T11:22:26.760Z,3260.00
2019-02-23T11:23:26.579Z,3244.00
2019-02-23T11:24:26.506Z,3224.00
2019-02-23T11:25:26.442Z,3208.00
2019-02-23T11:26:26.360Z,3188.00
2019-02-23T11:27:26.305Z,3164.00
2019-02-23T11:28:26.227Z,3140.00
2019-02-23T11:29:26.173Z,3128.00
2019-02-23T11:30:26.203Z,3112.00
2019-02-23T11:31:26.042Z,3096.00
2019-02-23T11:32:25.979Z,3076.00
2019-02-23T11:33:25.895Z,3060.00
2019-02-23T11:34:25.824Z,3056.00
2019-02-23T11:35:25.770Z,3048.00
2019-02-23T11:36:25.723Z,3032.00
2019-02-23T11:37:25.643Z,3020.00
2019-02-23T11:38:25.560Z,3012.00
2019-02-23T11:39:25.570Z,2996.00
2019-02-23T11:40:25.421Z,2984.00
2019-02-23T11:41:25.361Z,2968.00
2019-02-23T11:42:25.312Z,2960.00
2019-02-23T11:43:25.217Z,2944.00
2019-02-23T11:44:25.154Z,2936.00
2019-02-23T11:45:25.097Z,2920.00
2019-02-23T11:46:25.035Z,2904.00
2019-02-23T11:47:24.961Z,2892.00
2019-02-23T11:48:24.893Z,2892.00
2019-02-23T11:49:24.820Z,2876.00
2019-02-23T11:50:24.751Z,2868.00
2019-02-23T11:51:24.694Z,2848.00
2019-02-23T11:52:24.636Z,2840.00
2019-02-23T11:53:24.551Z,2832.00
2019-02-23T11:54:24.481Z,2816.00
2019-02-23T11:55:24.427Z,2804.00
2019-02-23T11:56:24.349Z,2788.00
2019-02-23T11:57:24.298Z,2784.00
2019-02-23T11:58:24.228Z,2772.00
2019-02-23T11:59:24.162Z,2752.00
2019-02-23T12:00:24.094Z,2744.00
2019-02-23T12:01:24.047Z,2744.00
2019-02-23T12:02:23.949Z,2732.00
2019-02-23T12:03:23.919Z,2716.00
2019-02-23T12:04:23.814Z,2708.00
2019-02-23T12:05:23.754Z,2692.00
2019-02-23T12:06:23.696Z,2684.00
2019-02-23T12:07:23.634Z,2668.00
2019-02-23T12:08:23.544Z,2644.00
2019-02-23T12:09:23.491Z,2656.00
2019-02-23T12:10:23.418Z,2632.00
2019-02-23T12:11:23.358Z,2620.00
2019-02-23T12:12:23.286Z,2604.00
2019-02-23T12:13:23.208Z,2596.00
2019-02-23T12:14:25.758Z,2592.00
2019-02-23T12:15:23.081Z,2588.00
2019-02-23T12:16:23.006Z,2572.00
2019-02-23T12:17:22.948Z,2560.00
2019-02-23T12:18:22.882Z,2544.00
2019-02-23T12:19:22.818Z,2528.00
2019-02-23T12:20:22.756Z,2516.00
2019-02-23T12:21:22.668Z,2508.00
2019-02-23T12:22:22.603Z,2504.00
2019-02-23T12:23:22.566Z,2484.00
2019-02-23T12:24:22.504Z,2480.00
2019-02-23T12:25:22.412Z,2468.00
2019-02-23T12:26:22.344Z,2436.00
2019-02-23T12:27:22.269Z,2440.00
2019-02-23T12:28:22.230Z,2432.00
2019-02-23T12:29:22.149Z,2420.00
2019-02-23T12:30:22.079Z,2412.00
2019-02-23T12:31:22.018Z,2392.00
2019-02-23T12:32:21.943Z,2388.00
2019-02-23T12:33:21.867Z,2372.00
2019-02-23T12:34:21.800Z,2364.00
2019-02-23T12:35:21.739Z,2348.00
2019-02-23T12:36:21.663Z,2336.00
2019-02-23T12:37:21.603Z,2328.00
2019-02-23T12:38:21.536Z,2312.00
2019-02-23T12:39:21.459Z,2296.00
2019-02-23T12:40:21.390Z,2300.00
2019-02-23T12:41:21.343Z,2284.00
2019-02-23T12:42:21.272Z,2268.00